Lake Waukomis, Missouri
Current Conditions -  °F | °C
As of 12:54 PM on Thursday 27 Nov 2014 (Local Time) from KMKC Reporting Station
Scattered Clouds Scattered Clouds  
Wind Chill: 31°   Ceiling: Unl
Heat Index: 35°   Visibility: 10mi
Dew Point: 20°   Wind: 5mph
Humidity: 54%   Direction: 140°SE
Pressure: 30.47"   Gusts: NA
Location:  39.2125°N, 94.6296°W
Report Text: KMKC 271854Z 14004KT 10SM SCT080 02/M07 A3047 RMK AO2 SLP326 T00171067
Loading
Personal Weather Stations






























Interactive Weather Map New forecast layout! Learn more

10-Day Weather Forecast

Advertisements
Track Severe Weather on mobile